createdAt,value
2017-10-05T00:00:29.318Z,0.00
2017-10-05T00:01:29.280Z,0.00
2017-10-05T00:02:29.248Z,0.00
2017-10-05T00:03:29.211Z,0.00
2017-10-05T00:04:29.174Z,0.00
2017-10-05T00:05:29.139Z,0.00
2017-10-05T00:06:29.110Z,0.00
2017-10-05T00:07:29.072Z,0.00
2017-10-05T00:08:29.033Z,0.00
2017-10-05T00:09:28.996Z,0.00
2017-10-05T00:10:28.971Z,0.00
2017-10-05T00:11:28.926Z,0.00
2017-10-05T00:12:28.891Z,0.00
2017-10-05T00:13:28.861Z,0.00
2017-10-05T00:14:28.825Z,0.00
2017-10-05T00:15:28.788Z,0.00
2017-10-05T00:16:28.748Z,0.00
2017-10-05T00:17:28.717Z,0.00
2017-10-05T00:18:28.702Z,0.00
2017-10-05T00:19:28.647Z,0.00
2017-10-05T00:20:28.608Z,0.00
2017-10-05T00:21:28.578Z,0.00
2017-10-05T00:22:28.537Z,0.00
2017-10-05T00:23:28.509Z,0.00
2017-10-05T00:24:28.472Z,0.00
2017-10-05T00:25:28.432Z,0.00
2017-10-05T00:26:28.396Z,0.00
2017-10-05T00:27:28.362Z,0.00
2017-10-05T00:28:28.322Z,0.00
2017-10-05T00:29:28.285Z,0.00
2017-10-05T00:30:28.254Z,0.00
2017-10-05T00:31:28.218Z,0.00
2017-10-05T00:32:28.181Z,0.00
2017-10-05T00:33:28.148Z,0.00
2017-10-05T00:34:28.124Z,0.00
2017-10-05T00:35:28.076Z,0.00
2017-10-05T00:36:28.040Z,0.00
2017-10-05T00:37:28.004Z,0.00
2017-10-05T00:38:27.976Z,0.00
2017-10-05T00:39:27.938Z,0.00
2017-10-05T00:40:27.900Z,0.00
2017-10-05T00:41:27.862Z,0.00
2017-10-05T00:42:27.825Z,0.00
2017-10-05T00:43:27.789Z,0.00
2017-10-05T00:44:27.756Z,0.00
2017-10-05T00:45:27.720Z,0.00
2017-10-05T00:46:27.684Z,0.00
2017-10-05T00:47:27.677Z,0.00
2017-10-05T00:48:27.612Z,0.00
2017-10-05T00:49:27.578Z,0.00
2017-10-05T00:50:27.545Z,0.00
2017-10-05T00:51:27.507Z,0.00
2017-10-05T00:52:27.470Z,0.00
2017-10-05T00:53:27.434Z,0.00
2017-10-05T00:54:27.400Z,0.00
2017-10-05T00:55:27.364Z,0.00
2017-10-05T00:56:27.331Z,0.00
2017-10-05T00:57:27.292Z,0.00
2017-10-05T00:58:27.256Z,0.00
2017-10-05T00:59:27.223Z,0.00
2017-10-05T01:00:27.194Z,0.00
2017-10-05T01:01:27.149Z,0.00
2017-10-05T01:02:27.113Z,0.00
2017-10-05T01:03:27.078Z,0.00
2017-10-05T01:04:27.043Z,0.00
2017-10-05T01:05:27.006Z,0.00
2017-10-05T01:06:26.973Z,0.00
2017-10-05T01:07:26.938Z,0.00
2017-10-05T01:08:26.903Z,0.00
2017-10-05T01:09:26.864Z,0.00
2017-10-05T01:10:26.830Z,0.00
2017-10-05T01:11:26.798Z,0.00
2017-10-05T01:12:26.758Z,0.00
2017-10-05T01:13:26.722Z,0.00
2017-10-05T01:14:26.687Z,0.00
2017-10-05T01:15:26.653Z,0.00
2017-10-05T01:16:26.632Z,0.00
2017-10-05T01:17:26.586Z,0.00
2017-10-05T01:18:26.554Z,0.00
2017-10-05T01:19:26.514Z,0.00
2017-10-05T01:20:26.480Z,0.00
2017-10-05T01:21:26.452Z,0.00
2017-10-05T01:22:26.404Z,0.00
2017-10-05T01:23:26.370Z,0.00
2017-10-05T01:24:26.332Z,0.00
2017-10-05T01:25:26.298Z,0.00
2017-10-05T01:26:26.273Z,0.00
2017-10-05T01:27:26.226Z,0.00
2017-10-05T01:28:26.205Z,0.00
2017-10-05T01:29:26.160Z,0.00
2017-10-05T01:30:26.137Z,0.00
2017-10-05T01:31:26.093Z,0.00
2017-10-05T01:32:26.050Z,0.00
2017-10-05T01:33:26.019Z,0.00
2017-10-05T01:34:25.979Z,0.00
2017-10-05T01:35:25.943Z,0.00
2017-10-05T01:36:25.915Z,0.00
2017-10-05T01:37:25.876Z,0.00
2017-10-05T01:38:25.841Z,0.00
2017-10-05T01:39:25.801Z,0.00
2017-10-05T01:40:25.767Z,0.00
2017-10-05T01:41:25.735Z,0.00
2017-10-05T01:42:25.697Z,0.00
2017-10-05T01:43:25.657Z,0.00
2017-10-05T01:44:25.622Z,0.00
2017-10-05T01:45:25.591Z,0.00
2017-10-05T01:46:25.554Z,0.00
2017-10-05T01:47:25.520Z,0.00
2017-10-05T01:48:25.493Z,0.00
2017-10-05T01:49:25.445Z,0.00
2017-10-05T01:50:25.411Z,0.00
2017-10-05T01:51:25.376Z,0.00
2017-10-05T01:52:25.338Z,0.00
2017-10-05T01:53:25.301Z,0.00
2017-10-05T01:54:25.267Z,0.00
2017-10-05T01:55:25.237Z,0.00
2017-10-05T01:56:25.196Z,0.00
2017-10-05T01:57:25.158Z,0.00
2017-10-05T01:58:25.125Z,0.00
2017-10-05T01:59:25.089Z,0.00
2017-10-05T02:00:25.052Z,0.00
2017-10-05T02:01:25.018Z,0.00
2017-10-05T02:02:24.982Z,0.00
2017-10-05T02:03:24.945Z,0.00
2017-10-05T02:04:24.910Z,0.00
2017-10-05T02:05:24.883Z,0.00
2017-10-05T02:06:24.857Z,0.00
2017-10-05T02:07:24.809Z,0.00
2017-10-05T02:08:24.769Z,0.00
2017-10-05T02:09:24.734Z,0.00
2017-10-05T02:10:24.699Z,0.00
2017-10-05T02:11:24.662Z,0.00
2017-10-05T02:12:24.632Z,0.00
2017-10-05T02:13:24.592Z,0.00
2017-10-05T02:14:24.559Z,0.00
2017-10-05T02:15:24.521Z,0.00
2017-10-05T02:16:24.486Z,0.00
2017-10-05T02:17:24.449Z,0.00
2017-10-05T02:18:24.416Z,0.00
2017-10-05T02:19:24.378Z,0.00
2017-10-05T02:20:24.342Z,0.00
2017-10-05T02:21:24.313Z,0.00
2017-10-05T02:22:24.280Z,0.00
2017-10-05T02:23:24.235Z,0.00
2017-10-05T02:24:24.204Z,0.00
2017-10-05T02:25:24.166Z,0.00
2017-10-05T02:26:24.149Z,0.00
2017-10-05T02:27:24.116Z,0.00
2017-10-05T02:28:24.067Z,0.00
2017-10-05T02:29:24.049Z,0.00
2017-10-05T02:30:23.990Z,0.00
2017-10-05T02:31:23.949Z,0.00
2017-10-05T02:32:23.916Z,0.00
2017-10-05T02:33:23.885Z,0.00
2017-10-05T02:34:23.849Z,0.00
2017-10-05T02:35:23.816Z,0.00
2017-10-05T02:36:23.774Z,0.00
2017-10-05T02:37:23.739Z,0.00
2017-10-05T02:38:23.705Z,0.00
2017-10-05T02:39:23.668Z,0.00
2017-10-05T02:40:23.634Z,0.00
2017-10-05T02:41:23.595Z,0.00
2017-10-05T02:42:23.567Z,0.00
2017-10-05T02:43:23.531Z,0.00
2017-10-05T02:44:23.493Z,0.00
2017-10-05T02:45:23.461Z,0.00
2017-10-05T02:46:23.423Z,0.00
2017-10-05T02:47:23.386Z,0.00
2017-10-05T02:48:23.348Z,0.00
2017-10-05T02:49:23.312Z,0.00
2017-10-05T02:50:23.277Z,0.00
2017-10-05T02:51:23.243Z,0.00
2017-10-05T02:52:23.205Z,0.00
2017-10-05T02:53:23.173Z,0.00
2017-10-05T02:54:23.134Z,0.00
2017-10-05T02:55:23.101Z,0.00
2017-10-05T02:56:23.063Z,0.00
2017-10-05T02:57:23.031Z,0.00
2017-10-05T02:58:22.994Z,0.00
2017-10-05T02:59:22.960Z,0.00
2017-10-05T03:00:22.936Z,0.00
2017-10-05T03:01:22.885Z,0.00
2017-10-05T03:02:22.859Z,0.00
2017-10-05T03:03:22.814Z,0.00
2017-10-05T03:04:22.781Z,0.00
2017-10-05T03:05:22.747Z,0.00
2017-10-05T03:06:22.708Z,0.00
2017-10-05T03:07:22.672Z,0.00
2017-10-05T03:08:22.636Z,0.00
2017-10-05T03:09:22.601Z,0.00
2017-10-05T03:10:22.563Z,0.00
2017-10-05T03:11:22.530Z,0.00
2017-10-05T03:12:22.496Z,0.00
2017-10-05T03:13:22.456Z,0.00
2017-10-05T03:14:22.426Z,0.00
2017-10-05T03:15:22.388Z,0.00
2017-10-05T03:16:22.352Z,0.00
2017-10-05T03:17:22.317Z,0.00
2017-10-05T03:18:22.288Z,0.00
2017-10-05T03:19:22.247Z,0.00
2017-10-05T03:20:22.214Z,0.00
2017-10-05T03:21:22.176Z,0.00
2017-10-05T03:22:22.143Z,0.00
2017-10-05T03:23:22.103Z,0.00
2017-10-05T03:24:22.068Z,0.00
2017-10-05T03:25:22.038Z,0.00
2017-10-05T03:26:22.006Z,0.00
2017-10-05T03:27:21.961Z,0.00
2017-10-05T03:28:21.929Z,0.00
2017-10-05T03:29:21.890Z,0.00
2017-10-05T03:30:21.854Z,0.00
2017-10-05T03:31:21.820Z,0.00
2017-10-05T03:32:21.784Z,0.00
2017-10-05T03:33:21.779Z,0.00
2017-10-05T03:34:21.716Z,0.00
2017-10-05T03:35:21.679Z,0.00
2017-10-05T03:36:21.642Z,0.00
2017-10-05T03:37:21.608Z,0.00
2017-10-05T03:38:21.572Z,0.00
2017-10-05T03:39:21.547Z,0.00
2017-10-05T03:40:21.499Z,0.00
2017-10-05T03:41:21.463Z,0.00
2017-10-05T03:42:21.431Z,0.00
2017-10-05T03:43:21.400Z,0.00
2017-10-05T03:44:21.356Z,0.00
2017-10-05T03:45:21.322Z,0.00
2017-10-05T03:46:21.285Z,0.00
2017-10-05T03:47:21.251Z,0.00
2017-10-05T03:48:21.225Z,0.00
2017-10-05T03:49:21.181Z,0.00
2017-10-05T03:50:21.145Z,0.00
2017-10-05T03:51:21.112Z,0.00
2017-10-05T03:52:21.071Z,0.00
2017-10-05T03:53:21.036Z,0.00
2017-10-05T03:54:21.000Z,0.00
2017-10-05T03:55:20.964Z,0.00
2017-10-05T03:56:20.929Z,0.00
2017-10-05T03:57:20.896Z,0.00
2017-10-05T03:58:20.871Z,0.00
2017-10-05T03:59:20.828Z,0.00
2017-10-05T04:00:20.792Z,0.00
2017-10-05T04:01:20.750Z,0.00
2017-10-05T04:02:20.730Z,0.00
2017-10-05T04:03:20.680Z,0.00
2017-10-05T04:04:20.650Z,0.00
2017-10-05T04:05:20.613Z,0.00
2017-10-05T04:06:20.580Z,0.00
2017-10-05T04:07:20.531Z,0.00
2017-10-05T04:08:20.499Z,0.00
2017-10-05T04:09:20.464Z,0.00
2017-10-05T04:10:20.427Z,0.00
2017-10-05T04:11:20.391Z,0.00
2017-10-05T04:12:20.355Z,0.00
2017-10-05T04:13:20.320Z,0.00
2017-10-05T04:14:20.286Z,0.00
2017-10-05T04:15:20.252Z,0.00
2017-10-05T04:16:20.212Z,0.00
2017-10-05T04:17:20.176Z,0.00
2017-10-05T04:18:20.141Z,0.00
2017-10-05T04:19:20.112Z,0.00
2017-10-05T04:20:20.072Z,0.00
2017-10-05T04:21:20.035Z,0.00
2017-10-05T04:22:19.996Z,0.00
2017-10-05T04:23:19.961Z,0.00
2017-10-05T04:24:19.932Z,0.00
2017-10-05T04:25:19.890Z,0.00
2017-10-05T04:26:19.854Z,0.00
2017-10-05T04:27:19.818Z,0.00
2017-10-05T04:28:19.791Z,0.00
2017-10-05T04:29:19.755Z,0.00
2017-10-05T04:30:19.709Z,0.00
2017-10-05T04:31:19.682Z,0.00
2017-10-05T04:32:19.636Z,0.00
2017-10-05T04:33:19.605Z,0.00
2017-10-05T04:34:19.570Z,0.00
2017-10-05T04:35:19.530Z,0.00
2017-10-05T04:36:19.494Z,0.00
2017-10-05T04:37:19.458Z,0.00
2017-10-05T04:38:19.424Z,0.00
2017-10-05T04:39:19.388Z,0.00
2017-10-05T04:40:19.350Z,0.00
2017-10-05T04:41:19.314Z,0.00
2017-10-05T04:42:19.279Z,0.00
2017-10-05T04:43:19.254Z,0.00
2017-10-05T04:44:19.206Z,0.00
2017-10-05T04:45:19.168Z,0.00
2017-10-05T04:46:19.136Z,0.00
2017-10-05T04:47:19.099Z,0.00
2017-10-05T04:48:19.068Z,0.00
2017-10-05T04:49:19.027Z,0.00
2017-10-05T04:50:18.999Z,0.00
2017-10-05T04:51:18.963Z,0.00
2017-10-05T04:52:18.918Z,0.00
2017-10-05T04:53:18.886Z,0.00
2017-10-05T04:54:18.860Z,0.00
2017-10-05T04:55:18.816Z,0.00
2017-10-05T04:56:18.782Z,0.00
2017-10-05T04:57:18.739Z,0.00
2017-10-05T04:58:18.704Z,0.00
2017-10-05T04:59:18.668Z,0.00
2017-10-05T05:00:18.650Z,0.00
2017-10-05T05:01:18.597Z,0.00
2017-10-05T05:02:18.567Z,0.00
2017-10-05T05:03:18.529Z,0.00
2017-10-05T05:04:18.490Z,0.00
2017-10-05T05:05:18.449Z,0.00
2017-10-05T05:06:18.415Z,0.00
2017-10-05T05:07:18.379Z,0.00
2017-10-05T05:08:18.340Z,0.00
2017-10-05T05:09:18.318Z,0.00
2017-10-05T05:10:18.272Z,0.00
2017-10-05T05:11:18.250Z,0.00
2017-10-05T05:12:18.197Z,0.00
2017-10-05T05:13:18.162Z,0.00
2017-10-05T05:14:18.126Z,0.00
2017-10-05T05:15:18.091Z,0.00
2017-10-05T05:16:18.053Z,0.00
2017-10-05T05:17:18.018Z,0.00
2017-10-05T05:18:17.980Z,0.00
2017-10-05T05:19:17.945Z,0.00
2017-10-05T05:20:17.909Z,0.00
2017-10-05T05:21:17.887Z,0.00
2017-10-05T05:22:17.838Z,0.00
2017-10-05T05:23:17.805Z,0.00
2017-10-05T05:24:17.774Z,0.00
2017-10-05T05:25:17.731Z,0.00
2017-10-05T05:26:17.689Z,0.00
2017-10-05T05:27:17.657Z,0.00
2017-10-05T05:28:17.623Z,0.00
2017-10-05T05:29:17.592Z,0.00
2017-10-05T05:30:17.547Z,0.00
2017-10-05T05:31:17.511Z,0.00
2017-10-05T05:32:17.479Z,0.00
2017-10-05T05:33:17.438Z,0.00
2017-10-05T05:34:17.406Z,0.00
2017-10-05T05:35:17.372Z,0.00
2017-10-05T05:36:17.330Z,0.00
2017-10-05T05:37:17.291Z,0.00
2017-10-05T05:38:17.260Z,0.00
2017-10-05T05:39:17.222Z,0.00
2017-10-05T05:40:17.192Z,5.63
2017-10-05T05:41:17.150Z,5.63
2017-10-05T05:42:17.114Z,5.63
2017-10-05T05:43:17.077Z,0.00
2017-10-05T05:44:17.044Z,5.63
2017-10-05T05:45:17.002Z,5.63
2017-10-05T05:46:16.978Z,5.63
2017-10-05T05:47:16.932Z,11.25
2017-10-05T05:48:16.917Z,11.25
2017-10-05T05:49:16.866Z,11.25
2017-10-05T05:50:16.834Z,11.25
2017-10-05T05:51:16.787Z,11.25
2017-10-05T05:52:16.746Z,11.25
2017-10-05T05:53:16.712Z,11.25
2017-10-05T05:54:16.676Z,11.25
2017-10-05T05:55:16.641Z,16.88
2017-10-05T05:56:16.606Z,16.88
2017-10-05T05:57:16.567Z,16.88
2017-10-05T05:58:16.538Z,16.88
2017-10-05T05:59:16.511Z,16.88
2017-10-05T06:00:16.463Z,16.88
2017-10-05T06:01:16.428Z,16.88
2017-10-05T06:02:16.386Z,22.50
2017-10-05T06:03:16.364Z,22.50
2017-10-05T06:04:16.315Z,28.13
2017-10-05T06:05:16.279Z,28.13
2017-10-05T06:06:16.260Z,28.13
2017-10-05T06:07:16.217Z,22.50
2017-10-05T06:08:16.167Z,22.50
2017-10-05T06:09:16.141Z,22.50
2017-10-05T06:10:16.103Z,22.50
2017-10-05T06:11:16.061Z,22.50
2017-10-05T06:12:16.021Z,22.50
2017-10-05T06:13:16.001Z,16.88
2017-10-05T06:14:15.951Z,16.88
2017-10-05T06:15:15.915Z,16.88
2017-10-05T06:16:15.878Z,22.50
2017-10-05T06:17:15.852Z,22.50
2017-10-05T06:18:15.807Z,22.50
2017-10-05T06:19:15.774Z,22.50
2017-10-05T06:20:15.729Z,22.50
2017-10-05T06:21:15.703Z,28.13
2017-10-05T06:22:15.783Z,28.13
2017-10-05T06:23:15.631Z,28.13
2017-10-05T06:24:15.595Z,28.13
2017-10-05T06:25:15.565Z,33.75
2017-10-05T06:26:15.538Z,28.13
2017-10-05T06:27:15.521Z,22.50
2017-10-05T06:28:15.462Z,22.50
2017-10-05T06:29:15.413Z,22.50
2017-10-05T06:30:15.372Z,22.50
2017-10-05T06:31:15.382Z,22.50
2017-10-05T06:32:15.316Z,22.50
2017-10-05T06:33:15.259Z,28.13
2017-10-05T06:34:15.270Z,28.13
2017-10-05T06:35:15.214Z,28.13
2017-10-05T06:36:15.179Z,28.13
2017-10-05T06:37:15.114Z,28.13
2017-10-05T06:38:15.078Z,28.13
2017-10-05T06:39:15.060Z,33.75
2017-10-05T06:40:15.005Z,33.75
2017-10-05T06:41:14.969Z,33.75
2017-10-05T06:42:14.930Z,33.75
2017-10-05T06:43:14.893Z,33.75
2017-10-05T06:44:14.859Z,33.75
2017-10-05T06:45:14.823Z,33.75
2017-10-05T06:46:14.787Z,28.13
2017-10-05T06:47:14.751Z,33.75
2017-10-05T06:48:14.717Z,33.75
2017-10-05T06:49:14.679Z,39.38
2017-10-05T06:50:14.638Z,39.38
2017-10-05T06:51:14.609Z,39.38
2017-10-05T06:52:14.570Z,50.63
2017-10-05T06:53:14.538Z,50.63
2017-10-05T06:54:14.502Z,50.63
2017-10-05T06:55:14.461Z,50.63
2017-10-05T06:56:14.425Z,39.38
2017-10-05T06:57:14.389Z,45.00
2017-10-05T06:58:14.350Z,61.88
2017-10-05T06:59:14.318Z,56.25
2017-10-05T07:00:14.284Z,50.63
2017-10-05T07:01:14.243Z,39.38
2017-10-05T07:02:14.208Z,56.25
2017-10-05T07:03:14.195Z,61.88
2017-10-05T07:04:14.134Z,67.50
2017-10-05T07:05:14.099Z,73.13
2017-10-05T07:06:14.063Z,67.50
2017-10-05T07:07:14.029Z,61.88
2017-10-05T07:08:13.986Z,61.88
2017-10-05T07:09:13.958Z,67.50
2017-10-05T07:10:13.923Z,73.13
2017-10-05T07:11:13.889Z,73.13
2017-10-05T07:12:13.854Z,73.13
2017-10-05T07:13:13.807Z,67.50
2017-10-05T07:14:13.781Z,67.50
2017-10-05T07:15:13.745Z,73.13
2017-10-05T07:16:13.703Z,78.75
2017-10-05T07:17:13.659Z,84.38
2017-10-05T07:18:13.624Z,84.38
2017-10-05T07:19:13.590Z,78.75
2017-10-05T07:20:13.551Z,84.38
2017-10-05T07:21:13.517Z,84.38
2017-10-05T07:22:13.498Z,73.13
2017-10-05T07:23:13.442Z,73.13
2017-10-05T07:24:13.406Z,61.88
2017-10-05T07:25:13.376Z,73.13
2017-10-05T07:26:13.384Z,73.13
2017-10-05T07:27:13.297Z,73.13
2017-10-05T07:28:13.263Z,67.50
2017-10-05T07:29:13.230Z,67.50
2017-10-05T07:30:13.196Z,67.50
2017-10-05T07:31:13.153Z,73.13
2017-10-05T07:32:13.115Z,73.13
2017-10-05T07:33:13.084Z,67.50
2017-10-05T07:34:13.045Z,56.25
2017-10-05T07:35:13.008Z,45.00
2017-10-05T07:36:12.973Z,56.25
2017-10-05T07:37:12.933Z,61.88
2017-10-05T07:38:12.903Z,67.50
2017-10-05T07:39:12.874Z,73.13
2017-10-05T07:40:12.828Z,73.13
2017-10-05T07:41:12.796Z,78.75
2017-10-05T07:42:12.753Z,78.75
2017-10-05T07:43:12.719Z,78.75
2017-10-05T07:44:12.680Z,73.13
2017-10-05T07:45:12.672Z,61.88
2017-10-05T07:46:12.607Z,56.25
2017-10-05T07:47:12.570Z,50.63
2017-10-05T07:48:12.536Z,61.88
2017-10-05T07:49:12.507Z,84.38
2017-10-05T07:50:12.466Z,90.00
2017-10-05T07:51:12.431Z,90.00
2017-10-05T07:52:12.393Z,84.38
2017-10-05T07:53:12.356Z,78.75
2017-10-05T07:54:12.326Z,73.13
2017-10-05T07:55:12.286Z,78.75
2017-10-05T07:56:12.258Z,78.75
2017-10-05T07:57:12.212Z,95.63
2017-10-05T07:58:12.182Z,101.25
2017-10-05T07:59:12.139Z,118.13
2017-10-05T08:00:12.113Z,112.50
2017-10-05T08:01:12.068Z,118.13
2017-10-05T08:02:12.031Z,118.13
2017-10-05T08:03:11.993Z,118.13
2017-10-05T08:04:11.960Z,112.50
2017-10-05T08:05:11.924Z,106.88
2017-10-05T08:06:11.890Z,106.88
2017-10-05T08:07:11.861Z,106.88
2017-10-05T08:08:11.829Z,106.88
2017-10-05T08:09:11.783Z,95.63
2017-10-05T08:10:11.742Z,95.63
2017-10-05T08:11:11.709Z,90.00
2017-10-05T08:12:11.674Z,106.88
2017-10-05T08:13:11.637Z,112.50
2017-10-05T08:14:11.600Z,129.38
2017-10-05T08:15:11.562Z,140.63
2017-10-05T08:16:11.530Z,135.00
2017-10-05T08:17:11.531Z,129.38
2017-10-05T08:18:11.457Z,123.75
2017-10-05T08:19:11.418Z,123.75
2017-10-05T08:20:11.381Z,135.00
2017-10-05T08:21:11.353Z,135.00
2017-10-05T08:22:11.316Z,112.50
2017-10-05T08:23:11.277Z,106.88
2017-10-05T08:24:11.246Z,95.63
2017-10-05T08:25:11.204Z,78.75
2017-10-05T08:26:11.167Z,61.88
2017-10-05T08:27:11.130Z,56.25
2017-10-05T08:28:11.094Z,56.25
2017-10-05T08:29:11.062Z,67.50
2017-10-05T08:30:11.024Z,61.88
2017-10-05T08:31:10.990Z,73.13
2017-10-05T08:32:10.951Z,84.38
2017-10-05T08:33:10.917Z,95.63
2017-10-05T08:34:10.881Z,106.88
2017-10-05T08:35:10.849Z,112.50
2017-10-05T08:36:10.809Z,118.13
2017-10-05T08:37:10.769Z,118.13
2017-10-05T08:38:10.735Z,118.13
2017-10-05T08:39:10.705Z,118.13
2017-10-05T08:40:10.680Z,112.50
2017-10-05T08:41:10.626Z,101.25
2017-10-05T08:42:10.592Z,95.63
2017-10-05T08:43:10.560Z,84.38
2017-10-05T08:44:10.546Z,78.75
2017-10-05T08:45:10.483Z,67.50
2017-10-05T08:46:10.443Z,67.50
2017-10-05T08:47:10.410Z,84.38
2017-10-05T08:48:10.377Z,78.75
2017-10-05T08:49:10.343Z,90.00
2017-10-05T08:50:10.303Z,106.88
2017-10-05T08:51:10.314Z,112.50
2017-10-05T08:52:10.235Z,118.13
2017-10-05T08:53:10.226Z,135.00
2017-10-05T08:54:10.165Z,135.00
2017-10-05T08:55:10.152Z,151.88
2017-10-05T08:56:10.096Z,168.75
2017-10-05T08:57:10.052Z,163.13
2017-10-05T08:58:10.013Z,146.25
2017-10-05T08:59:09.982Z,129.38
2017-10-05T09:00:09.945Z,118.13
2017-10-05T09:01:09.946Z,118.13
2017-10-05T09:02:09.904Z,123.75
2017-10-05T09:03:09.846Z,123.75
2017-10-05T09:04:09.799Z,135.00
2017-10-05T09:05:09.785Z,140.63
2017-10-05T09:06:09.726Z,151.88
2017-10-05T09:07:09.691Z,157.50
2017-10-05T09:08:09.657Z,146.25
2017-10-05T09:09:09.638Z,129.38
2017-10-05T09:10:09.581Z,112.50
2017-10-05T09:11:09.567Z,101.25
2017-10-05T09:12:09.527Z,84.38
2017-10-05T09:13:09.515Z,90.00
2017-10-05T09:14:09.438Z,95.63
2017-10-05T09:15:09.436Z,84.38
2017-10-05T09:16:09.365Z,84.38
2017-10-05T09:17:09.333Z,90.00
2017-10-05T09:18:09.302Z,106.88
2017-10-05T09:19:09.259Z,118.13
2017-10-05T09:20:09.228Z,112.50
2017-10-05T09:21:09.187Z,135.00
2017-10-05T09:22:09.157Z,146.25
2017-10-05T09:23:09.116Z,151.88
2017-10-05T09:24:09.084Z,151.88
2017-10-05T09:25:09.042Z,157.50
2017-10-05T09:26:09.032Z,168.75
2017-10-05T09:27:08.975Z,157.50
2017-10-05T09:28:08.935Z,151.88
2017-10-05T09:29:08.905Z,163.13
2017-10-05T09:30:08.870Z,157.50
2017-10-05T09:31:08.834Z,157.50
2017-10-05T09:32:08.801Z,168.75
2017-10-05T09:33:08.756Z,163.13
2017-10-05T09:34:08.720Z,196.88
2017-10-05T09:35:08.701Z,185.63
2017-10-05T09:36:08.663Z,163.13
2017-10-05T09:37:08.620Z,174.38
2017-10-05T09:38:08.583Z,180.00
2017-10-05T09:39:08.551Z,174.38
2017-10-05T09:40:08.509Z,180.00
2017-10-05T09:41:08.487Z,174.38
2017-10-05T09:42:08.455Z,157.50
2017-10-05T09:43:08.400Z,140.63
2017-10-05T09:44:08.362Z,123.75
2017-10-05T09:45:08.327Z,123.75
2017-10-05T09:46:08.289Z,118.13
2017-10-05T09:47:08.254Z,118.13
2017-10-05T09:48:08.214Z,129.38
2017-10-05T09:49:08.179Z,157.50
2017-10-05T09:50:08.147Z,163.13
2017-10-05T09:51:08.108Z,163.13
2017-10-05T09:52:08.098Z,151.88
2017-10-05T09:53:08.047Z,140.63
2017-10-05T09:54:08.011Z,118.13
2017-10-05T09:55:07.967Z,123.75
2017-10-05T09:56:07.933Z,106.88
2017-10-05T09:57:07.901Z,90.00
2017-10-05T09:58:07.864Z,78.75
2017-10-05T09:59:07.826Z,101.25
2017-10-05T10:00:07.791Z,112.50
2017-10-05T10:01:07.753Z,112.50
2017-10-05T10:02:07.721Z,95.63
2017-10-05T10:03:07.682Z,101.25
2017-10-05T10:04:07.645Z,106.88
2017-10-05T10:05:07.617Z,112.50
2017-10-05T10:06:07.574Z,118.13
2017-10-05T10:07:07.542Z,90.00
2017-10-05T10:08:07.504Z,90.00
2017-10-05T10:09:07.465Z,90.00
2017-10-05T10:10:07.432Z,84.38
2017-10-05T10:11:07.393Z,78.75
2017-10-05T10:12:07.358Z,73.13
2017-10-05T10:13:07.322Z,90.00
2017-10-05T10:14:07.313Z,84.38
2017-10-05T10:15:07.254Z,90.00
2017-10-05T10:16:07.212Z,95.63
2017-10-05T10:17:07.177Z,101.25
2017-10-05T10:18:07.168Z,78.75
2017-10-05T10:19:07.107Z,73.13
2017-10-05T10:20:07.077Z,67.50
2017-10-05T10:21:07.036Z,78.75
2017-10-05T10:22:07.001Z,67.50
2017-10-05T10:23:06.968Z,90.00
2017-10-05T10:24:06.932Z,101.25
2017-10-05T10:25:06.893Z,112.50
2017-10-05T10:26:06.858Z,129.38
2017-10-05T10:27:06.820Z,129.38
2017-10-05T10:28:06.795Z,123.75
2017-10-05T10:29:06.755Z,129.38
2017-10-05T10:30:06.714Z,123.75
2017-10-05T10:31:06.679Z,129.38
2017-10-05T10:32:06.669Z,118.13
2017-10-05T10:33:06.604Z,95.63
2017-10-05T10:34:06.571Z,95.63
2017-10-05T10:35:06.535Z,95.63
2017-10-05T10:36:06.509Z,95.63
2017-10-05T10:37:06.460Z,101.25
2017-10-05T10:38:06.465Z,135.00
2017-10-05T10:39:06.395Z,135.00
2017-10-05T10:40:06.361Z,140.63
2017-10-05T10:41:06.321Z,135.00
2017-10-05T10:42:06.296Z,146.25
2017-10-05T10:43:06.246Z,146.25
2017-10-05T10:44:06.205Z,151.88
2017-10-05T10:45:06.172Z,146.25
2017-10-05T10:46:06.138Z,140.63
2017-10-05T10:47:06.098Z,140.63
2017-10-05T10:48:06.063Z,140.63
2017-10-05T10:49:06.025Z,163.13
2017-10-05T10:50:05.992Z,168.75
2017-10-05T10:51:05.956Z,180.00
2017-10-05T10:52:05.926Z,146.25
2017-10-05T10:53:05.883Z,196.88
2017-10-05T10:54:05.850Z,213.75
2017-10-05T10:55:05.815Z,258.75
2017-10-05T10:56:05.774Z,236.25
2017-10-05T10:57:05.739Z,202.50
2017-10-05T10:58:05.710Z,185.63
2017-10-05T10:59:05.672Z,168.75
2017-10-05T11:00:05.631Z,168.75
2017-10-05T11:01:05.605Z,151.88
2017-10-05T11:02:05.562Z,140.63
2017-10-05T11:03:05.532Z,140.63
2017-10-05T11:04:05.492Z,140.63
2017-10-05T11:05:05.452Z,123.75
2017-10-05T11:06:05.415Z,146.25
2017-10-05T11:07:05.380Z,180.00
2017-10-05T11:08:05.344Z,202.50
2017-10-05T11:09:05.306Z,180.00
2017-10-05T11:10:05.268Z,163.13
2017-10-05T11:11:05.247Z,157.50
2017-10-05T11:12:05.201Z,168.75
2017-10-05T11:13:05.172Z,146.25
2017-10-05T11:14:05.132Z,135.00
2017-10-05T11:15:05.091Z,146.25
2017-10-05T11:16:05.062Z,129.38
2017-10-05T11:17:05.020Z,123.75
2017-10-05T11:18:04.988Z,146.25
2017-10-05T11:19:04.982Z,174.38
2017-10-05T11:20:04.913Z,163.13
2017-10-05T11:21:04.910Z,140.63
2017-10-05T11:22:04.839Z,118.13
2017-10-05T11:23:04.822Z,106.88
2017-10-05T11:24:04.816Z,118.13
2017-10-05T11:25:04.733Z,129.38
2017-10-05T11:26:04.707Z,163.13
2017-10-05T11:27:04.664Z,196.88
2017-10-05T11:28:04.625Z,202.50
2017-10-05T11:29:04.591Z,225.00
2017-10-05T11:30:04.563Z,185.63
2017-10-05T11:31:04.519Z,163.13
2017-10-05T11:32:04.481Z,174.38
2017-10-05T11:33:04.447Z,163.13
2017-10-05T11:34:04.434Z,168.75
2017-10-05T11:35:04.378Z,196.88
2017-10-05T11:36:04.341Z,213.75
2017-10-05T11:37:04.303Z,225.00
2017-10-05T11:38:04.265Z,225.00
2017-10-05T11:39:04.235Z,191.25
2017-10-05T11:40:04.200Z,202.50
2017-10-05T11:41:04.157Z,191.25
2017-10-05T11:42:04.204Z,168.75
2017-10-05T11:43:04.085Z,163.13
2017-10-05T11:44:04.107Z,230.63
2017-10-05T11:45:04.012Z,309.38
2017-10-05T11:46:03.987Z,315.00
2017-10-05T11:47:04.606Z,258.75
2017-10-05T11:48:03.908Z,286.88
2017-10-05T11:49:03.881Z,264.38
2017-10-05T11:50:03.841Z,253.13
2017-10-05T11:51:03.800Z,264.38
2017-10-05T11:52:03.764Z,258.75
2017-10-05T11:53:03.736Z,292.50
2017-10-05T11:54:03.692Z,315.00
2017-10-05T11:55:03.665Z,388.13
2017-10-05T11:56:03.626Z,641.25
2017-10-05T11:57:03.590Z,551.25
2017-10-05T11:58:03.553Z,573.75
2017-10-05T11:59:03.519Z,438.75
2017-10-05T12:00:03.478Z,444.38
2017-10-05T12:01:03.452Z,466.88
2017-10-05T12:02:03.412Z,433.13
2017-10-05T12:03:03.375Z,405.00
2017-10-05T12:04:03.341Z,371.25
2017-10-05T12:05:03.314Z,405.00
2017-10-05T12:06:03.278Z,388.13
2017-10-05T12:07:03.241Z,303.75
2017-10-05T12:08:03.217Z,281.25
2017-10-05T12:09:03.165Z,399.38
2017-10-05T12:10:03.131Z,416.25
2017-10-05T12:11:03.105Z,376.88
2017-10-05T12:12:03.062Z,360.00
2017-10-05T12:13:03.029Z,343.13
2017-10-05T12:14:02.992Z,292.50
2017-10-05T12:15:02.957Z,343.13
2017-10-05T12:16:02.921Z,416.25
2017-10-05T12:17:02.886Z,337.50
2017-10-05T12:18:02.855Z,410.63
2017-10-05T12:19:02.818Z,376.88
2017-10-05T12:20:02.786Z,320.63
2017-10-05T12:21:02.763Z,354.38
2017-10-05T12:22:02.715Z,410.63
2017-10-05T12:23:02.686Z,410.63
2017-10-05T12:24:02.651Z,298.13
2017-10-05T12:25:02.613Z,270.00
2017-10-05T12:26:02.581Z,253.13
2017-10-05T12:27:02.546Z,275.63
2017-10-05T12:28:02.509Z,253.13
2017-10-05T12:29:02.480Z,196.88
2017-10-05T12:30:02.445Z,275.63
2017-10-05T12:31:02.412Z,281.25
2017-10-05T12:32:02.374Z,303.75
2017-10-05T12:33:02.338Z,270.00
2017-10-05T12:34:02.303Z,264.38
2017-10-05T12:35:02.281Z,264.38
2017-10-05T12:36:02.237Z,292.50
2017-10-05T12:37:02.215Z,281.25
2017-10-05T12:38:02.171Z,236.25
2017-10-05T12:39:02.137Z,241.88
2017-10-05T12:40:02.100Z,258.75
2017-10-05T12:41:02.074Z,326.25
2017-10-05T12:42:02.034Z,309.38
2017-10-05T12:43:02.003Z,286.88
2017-10-05T12:44:01.979Z,241.88
2017-10-05T12:45:01.938Z,202.50
2017-10-05T12:46:01.913Z,151.88
2017-10-05T12:47:01.863Z,135.00
2017-10-05T12:48:01.830Z,118.13
2017-10-05T12:49:01.795Z,112.50
2017-10-05T12:50:01.762Z,123.75
2017-10-05T12:51:01.725Z,163.13
2017-10-05T12:52:01.691Z,208.13
2017-10-05T12:53:01.657Z,264.38
2017-10-05T12:54:01.630Z,275.63
2017-10-05T12:55:01.591Z,281.25